createdAt,value
2022-09-01T00:00:38.276Z,99.90
2022-09-01T00:03:42.972Z,99.90
2022-09-01T00:06:48.329Z,99.90
2022-09-01T00:09:51.673Z,99.90
2022-09-01T00:12:54.827Z,99.90
2022-09-01T00:15:58.159Z,99.90
2022-09-01T00:19:01.352Z,99.90
2022-09-01T00:22:06.413Z,99.90
2022-09-01T00:25:10.660Z,99.90
2022-09-01T00:28:13.799Z,99.90
2022-09-01T00:31:17.258Z,99.90
2022-09-01T00:34:20.999Z,99.90
2022-09-01T00:37:25.499Z,99.90
2022-09-01T00:40:28.763Z,99.90
2022-09-01T00:43:39.490Z,99.90
2022-09-01T00:46:50.369Z,99.90
2022-09-01T00:49:59.001Z,99.90
2022-09-01T00:53:03.611Z,99.90
2022-09-01T00:56:07.949Z,99.90
2022-09-01T00:59:13.233Z,99.90
2022-09-01T01:02:16.880Z,99.90
2022-09-01T01:05:21.704Z,99.90
2022-09-01T01:08:34.204Z,99.90
2022-09-01T01:11:37.584Z,99.90
2022-09-01T01:14:41.794Z,99.90
2022-09-01T01:17:49.018Z,99.90
2022-09-01T01:21:18.278Z,99.90
2022-09-01T01:24:28.096Z,99.90
2022-09-01T01:27:35.787Z,99.90
2022-09-01T01:30:52.300Z,99.90
2022-09-01T01:33:58.911Z,99.90
2022-09-01T01:37:02.009Z,99.90
2022-09-01T01:40:15.739Z,99.90
2022-09-01T01:43:23.246Z,99.90
2022-09-01T01:46:27.735Z,99.90
2022-09-01T01:49:31.283Z,99.90
2022-09-01T01:52:35.130Z,99.90
2022-09-01T01:55:43.861Z,99.90
2022-09-01T01:58:47.361Z,99.90
2022-09-01T02:01:51.296Z,99.90
2022-09-01T02:04:55.140Z,99.90
2022-09-01T02:08:04.024Z,99.90
2022-09-01T02:11:09.322Z,99.90
2022-09-01T02:14:13.561Z,99.90
2022-09-01T02:17:16.714Z,99.90
2022-09-01T02:20:20.149Z,99.90
2022-09-01T02:23:24.581Z,99.90
2022-09-01T02:26:32.184Z,99.90
2022-09-01T02:29:40.169Z,99.90
2022-09-01T02:32:47.230Z,99.90
2022-09-01T02:35:53.021Z,99.90
2022-09-01T02:38:56.496Z,99.90
2022-09-01T02:42:01.915Z,99.90
2022-09-01T02:45:08.201Z,99.90
2022-09-01T02:48:11.574Z,99.90
2022-09-01T02:51:16.893Z,99.90
2022-09-01T02:54:24.048Z,99.90
2022-09-01T02:57:29.493Z,99.90
2022-09-01T03:00:36.179Z,99.90
2022-09-01T03:03:39.272Z,99.90
2022-09-01T03:06:42.538Z,99.90
2022-09-01T03:09:45.761Z,99.90
2022-09-01T03:12:50.216Z,99.90
2022-09-01T03:15:53.323Z,99.90
2022-09-01T03:18:56.452Z,99.90
2022-09-01T03:22:00.249Z,99.90
2022-09-01T03:25:03.375Z,99.90
2022-09-01T03:28:08.267Z,99.90
2022-09-01T03:31:11.825Z,99.90
2022-09-01T03:34:16.493Z,99.90
2022-09-01T03:37:20.981Z,99.90
2022-09-01T03:40:24.981Z,99.90
2022-09-01T03:43:35.279Z,99.90
2022-09-01T03:46:40.516Z,99.90
2022-09-01T03:49:43.655Z,99.90
2022-09-01T03:52:46.884Z,99.90
2022-09-01T03:55:52.492Z,99.90
2022-09-01T03:58:58.758Z,99.90
2022-09-01T04:02:02.988Z,99.90
2022-09-01T04:05:08.572Z,99.90
2022-09-01T04:08:13.552Z,99.90
2022-09-01T04:11:19.121Z,99.90
2022-09-01T04:14:25.639Z,99.90
2022-09-01T04:17:47.932Z,99.90
2022-09-01T04:20:53.604Z,99.90
2022-09-01T04:24:05.603Z,99.90
2022-09-01T04:27:09.937Z,99.90
2022-09-01T04:30:16.670Z,99.90
2022-09-01T04:33:20.025Z,99.90
2022-09-01T04:36:25.430Z,99.90
2022-09-01T04:39:29.545Z,99.90
2022-09-01T04:42:35.324Z,99.90
2022-09-01T04:45:41.037Z,99.90
2022-09-01T04:48:46.135Z,99.90
2022-09-01T04:51:53.880Z,99.90
2022-09-01T04:54:58.233Z,99.90
2022-09-01T04:58:08.316Z,99.90
2022-09-01T05:01:19.123Z,99.90
2022-09-01T05:04:24.583Z,99.90
2022-09-01T05:07:28.102Z,99.90
2022-09-01T05:10:31.751Z,99.90
2022-09-01T05:13:35.782Z,99.90
2022-09-01T05:16:42.585Z,99.90
2022-09-01T05:19:48.675Z,99.90
2022-09-01T05:22:56.611Z,99.90
2022-09-01T05:26:01.218Z,99.90
2022-09-01T05:29:10.778Z,99.90
2022-09-01T05:32:15.455Z,99.90
2022-09-01T05:35:18.909Z,99.90
2022-09-01T05:38:22.110Z,99.90
2022-09-01T05:41:25.313Z,99.90
2022-09-01T05:44:28.756Z,99.90
2022-09-01T05:47:34.452Z,99.90
2022-09-01T05:50:41.385Z,99.90
2022-09-01T05:53:44.857Z,99.90
2022-09-01T05:56:48.961Z,99.90
2022-09-01T05:59:54.263Z,99.90
2022-09-01T06:02:59.082Z,99.90
2022-09-01T06:06:12.337Z,99.90
2022-09-01T06:09:18.208Z,99.90
2022-09-01T06:12:23.515Z,99.90
2022-09-01T06:15:29.576Z,99.90
2022-09-01T06:18:34.348Z,99.90
2022-09-01T06:21:37.746Z,99.90
2022-09-01T06:24:43.609Z,99.90
2022-09-01T06:27:49.575Z,99.90
2022-09-01T06:30:53.748Z,99.90
2022-09-01T06:34:00.031Z,99.90
2022-09-01T06:37:03.149Z,99.90
2022-09-01T06:40:10.723Z,99.90
2022-09-01T06:43:16.302Z,99.90
2022-09-01T06:46:20.203Z,99.90
2022-09-01T06:49:32.612Z,99.90
2022-09-01T06:55:59.602Z,99.90
2022-09-01T06:59:05.198Z,99.00
2022-09-01T07:02:12.634Z,97.50
2022-09-01T07:12:28.911Z,96.40
2022-09-01T07:18:58.953Z,94.40
2022-09-01T07:22:07.042Z,92.20
2022-09-01T07:25:12.771Z,92.40
2022-09-01T07:28:19.116Z,92.30
2022-09-01T07:34:50.144Z,88.50
2022-09-01T07:44:44.101Z,65.30
2022-09-01T07:47:54.960Z,59.30
2022-09-01T07:54:24.062Z,56.00
2022-09-01T07:57:27.224Z,54.90
2022-09-01T08:00:31.441Z,52.70
2022-09-01T08:03:35.044Z,51.50
2022-09-01T08:06:39.143Z,50.30
2022-09-01T08:09:44.355Z,48.70
2022-09-01T08:12:56.377Z,46.80
2022-09-01T08:16:08.348Z,47.30
2022-09-01T08:19:19.132Z,47.80
2022-09-01T08:22:24.315Z,47.10
2022-09-01T08:25:29.764Z,45.10
2022-09-01T08:28:33.572Z,44.60
2022-09-01T08:31:36.840Z,42.80
2022-09-01T08:34:40.057Z,41.40
2022-09-01T08:37:43.921Z,40.60
2022-09-01T08:40:56.837Z,38.50
2022-09-01T08:44:06.678Z,38.80
2022-09-01T08:47:15.504Z,38.00
2022-09-01T08:50:20.709Z,36.70
2022-09-01T08:53:32.605Z,35.30
2022-09-01T08:56:37.974Z,33.80
2022-09-01T08:59:41.155Z,34.50
2022-09-01T09:02:54.704Z,32.70
2022-09-01T09:06:08.125Z,30.90
2022-09-01T09:09:11.747Z,28.30
2022-09-01T09:12:48.970Z,26.90
2022-09-01T09:16:07.258Z,26.40
2022-09-01T09:19:18.110Z,25.10
2022-09-01T09:22:21.573Z,24.50
2022-09-01T09:25:25.449Z,24.30
2022-09-01T09:28:29.940Z,24.00
2022-09-01T09:31:35.901Z,23.40
2022-09-01T09:34:41.932Z,24.20
2022-09-01T09:37:45.685Z,23.20
2022-09-01T09:41:20.323Z,22.70
2022-09-01T09:44:30.551Z,23.10
2022-09-01T09:47:44.007Z,23.90
2022-09-01T09:50:47.827Z,24.10
2022-09-01T09:53:54.279Z,25.70
2022-09-01T09:57:13.470Z,27.20
2022-09-01T10:00:24.507Z,29.30
2022-09-01T10:03:37.466Z,30.50
2022-09-01T10:06:45.334Z,32.80
2022-09-01T10:09:49.202Z,35.50
2022-09-01T10:12:54.024Z,38.30
2022-09-01T10:16:00.991Z,40.60
2022-09-01T10:19:12.755Z,42.20
2022-09-01T10:22:16.344Z,42.60
2022-09-01T10:25:22.508Z,43.00
2022-09-01T10:28:26.823Z,43.20
2022-09-01T10:31:32.799Z,43.40
2022-09-01T10:34:42.128Z,43.00
2022-09-01T10:37:45.701Z,43.40
2022-09-01T10:41:07.744Z,44.80
2022-09-01T10:44:13.083Z,46.10
2022-09-01T10:47:30.074Z,45.60
2022-09-01T10:50:36.781Z,46.30
2022-09-01T10:53:42.024Z,46.10
2022-09-01T10:56:51.982Z,46.60
2022-09-01T10:59:58.193Z,48.70
2022-09-01T11:03:42.043Z,49.80
2022-09-01T11:07:17.168Z,53.00
2022-09-01T11:10:41.378Z,54.30
2022-09-01T11:13:49.913Z,56.10
2022-09-01T11:17:16.079Z,57.50
2022-09-01T11:20:27.978Z,58.80
2022-09-01T11:23:32.281Z,62.20
2022-09-01T11:26:49.961Z,66.20
2022-09-01T11:29:55.701Z,66.90
2022-09-01T11:33:04.929Z,67.90
2022-09-01T11:36:16.993Z,68.30
2022-09-01T11:39:34.678Z,68.60
2022-09-01T11:42:46.714Z,69.30
2022-09-01T11:46:03.698Z,69.80
2022-09-01T11:49:19.074Z,70.20
2022-09-01T11:52:26.310Z,70.10
2022-09-01T11:55:31.742Z,70.30
2022-09-01T11:58:39.493Z,70.00
2022-09-01T12:01:42.691Z,69.50
2022-09-01T12:04:46.372Z,67.60
2022-09-01T12:07:51.036Z,67.00
2022-09-01T12:11:05.028Z,66.20
2022-09-01T12:14:11.615Z,64.70
2022-09-01T12:17:22.417Z,63.60
2022-09-01T12:20:29.950Z,62.60
2022-09-01T12:23:36.924Z,61.20
2022-09-01T12:26:40.848Z,61.90
2022-09-01T12:29:44.772Z,62.00
2022-09-01T12:32:49.131Z,62.20
2022-09-01T12:35:56.039Z,64.00
2022-09-01T12:39:24.559Z,65.00
2022-09-01T12:42:41.573Z,65.40
2022-09-01T12:45:48.595Z,66.00
2022-09-01T12:48:51.753Z,66.40
2022-09-01T12:52:14.727Z,66.10
2022-09-01T12:58:52.258Z,66.80
2022-09-01T13:01:55.510Z,67.00
2022-09-01T13:05:20.618Z,66.70
2022-09-01T13:08:27.163Z,66.40
2022-09-01T13:14:55.567Z,66.30
2022-09-01T13:17:58.932Z,67.10
2022-09-01T13:21:02.485Z,66.90
2022-09-01T13:24:07.722Z,65.60
2022-09-01T13:27:21.201Z,64.60
2022-09-01T13:30:28.426Z,63.10
2022-09-01T13:34:09.233Z,63.40
2022-09-01T13:36:55.260Z,63.50
2022-09-01T13:39:58.438Z,62.40
2022-09-01T13:43:04.749Z,61.90
2022-09-01T13:46:08.246Z,61.60
2022-09-01T13:52:35.415Z,62.70
2022-09-01T13:55:41.250Z,62.60
2022-09-01T13:58:46.328Z,63.00
2022-09-01T14:01:51.360Z,63.40
2022-09-01T14:04:54.592Z,63.00
2022-09-01T14:07:58.849Z,62.30
2022-09-01T14:11:02.948Z,62.10
2022-09-01T14:14:07.974Z,62.20
2022-09-01T14:17:11.108Z,62.70
2022-09-01T14:20:16.780Z,63.30
2022-09-01T14:23:20.924Z,63.30
2022-09-01T14:26:24.058Z,63.70
2022-09-01T14:29:32.710Z,65.20
2022-09-01T14:32:36.560Z,64.00
2022-09-01T14:35:41.304Z,65.00
2022-09-01T14:38:44.421Z,65.30
2022-09-01T14:41:47.589Z,64.20
2022-09-01T14:44:52.274Z,64.30
2022-09-01T14:48:00.796Z,65.30
2022-09-01T14:51:04.364Z,65.60
2022-09-01T14:54:07.459Z,66.20
2022-09-01T15:00:37.042Z,65.00
2022-09-01T15:03:40.178Z,66.60
2022-09-01T15:06:43.311Z,66.30
2022-09-01T15:09:46.434Z,62.20
2022-09-01T15:12:49.859Z,59.50
2022-09-01T15:15:54.439Z,59.30
2022-09-01T15:18:57.607Z,59.50
2022-09-01T15:22:00.999Z,59.40
2022-09-01T15:25:04.276Z,58.90
2022-09-01T15:28:07.708Z,58.30
2022-09-01T15:31:12.978Z,58.80
2022-09-01T15:34:18.977Z,59.30
2022-09-01T15:37:22.090Z,59.40
2022-09-01T15:40:26.616Z,59.30
2022-09-01T15:43:30.275Z,59.40
2022-09-01T15:46:36.151Z,58.90
2022-09-01T15:49:39.312Z,59.10
2022-09-01T15:52:50.706Z,58.70
2022-09-01T15:55:53.827Z,59.30
2022-09-01T15:59:01.125Z,59.80
2022-09-01T16:02:06.589Z,59.40
2022-09-01T16:05:11.112Z,59.60
2022-09-01T16:08:14.210Z,59.30
2022-09-01T16:11:17.382Z,59.10
2022-09-01T16:14:22.763Z,59.10
2022-09-01T16:17:42.102Z,59.60
2022-09-01T16:20:55.110Z,60.20
2022-09-01T16:24:01.525Z,59.80
2022-09-01T16:27:10.822Z,59.60
2022-09-01T16:30:17.212Z,59.70
2022-09-01T16:33:21.667Z,59.80
2022-09-01T16:36:38.040Z,60.80
2022-09-01T16:39:47.225Z,61.40
2022-09-01T16:42:58.179Z,61.40
2022-09-01T16:46:07.518Z,60.70
2022-09-01T16:49:19.311Z,59.90
2022-09-01T16:52:26.573Z,59.60
2022-09-01T16:55:37.244Z,61.20
2022-09-01T16:58:51.147Z,60.80
2022-09-01T17:02:06.906Z,59.90
2022-09-01T17:05:20.561Z,60.20
2022-09-01T17:08:27.383Z,60.60
2022-09-01T17:11:40.389Z,61.10
2022-09-01T17:14:48.162Z,61.30
2022-09-01T17:18:00.791Z,62.40
2022-09-01T17:21:15.142Z,62.80
2022-09-01T17:24:30.008Z,63.60
2022-09-01T17:27:37.961Z,63.20
2022-09-01T17:30:50.049Z,63.50
2022-09-01T17:34:03.027Z,63.50
2022-09-01T17:37:17.657Z,64.10
2022-09-01T17:40:26.165Z,63.40
2022-09-01T17:43:36.068Z,62.80
2022-09-01T17:46:44.306Z,63.50
2022-09-01T17:49:54.688Z,63.50
2022-09-01T17:53:10.156Z,64.10
2022-09-01T17:56:26.944Z,64.00
2022-09-01T17:59:36.733Z,64.30
2022-09-01T18:02:58.262Z,64.10
2022-09-01T18:06:05.615Z,63.70
2022-09-01T18:09:11.200Z,63.90
2022-09-01T18:12:18.627Z,64.20
2022-09-01T18:15:23.613Z,65.00
2022-09-01T18:18:35.098Z,65.40
2022-09-01T18:21:45.217Z,65.60
2022-09-01T18:24:58.976Z,65.30
2022-09-01T18:28:02.581Z,65.30
2022-09-01T18:31:21.815Z,65.20
2022-09-01T18:34:36.157Z,65.60
2022-09-01T18:37:46.362Z,66.10
2022-09-01T18:41:03.921Z,66.80
2022-09-01T18:44:21.185Z,66.20
2022-09-01T18:47:31.085Z,66.80
2022-09-01T18:50:43.767Z,66.50
2022-09-01T18:53:52.697Z,66.70
2022-09-01T18:57:01.619Z,66.70
2022-09-01T19:00:18.247Z,66.50
2022-09-01T19:03:28.727Z,66.60
2022-09-01T19:06:39.879Z,67.30
2022-09-01T19:09:51.292Z,66.90
2022-09-01T19:13:02.035Z,67.10
2022-09-01T19:16:14.187Z,67.40
2022-09-01T19:19:33.186Z,67.70
2022-09-01T19:22:43.559Z,67.60
2022-09-01T19:25:46.834Z,67.60
2022-09-01T19:28:55.173Z,67.80
2022-09-01T19:32:03.264Z,67.60
2022-09-01T19:35:12.499Z,68.10
2022-09-01T19:38:24.099Z,67.70
2022-09-01T19:41:33.377Z,67.40
2022-09-01T19:44:47.070Z,67.50
2022-09-01T19:47:58.043Z,67.90
2022-09-01T19:51:06.481Z,68.20
2022-09-01T19:54:16.215Z,68.50
2022-09-01T19:57:26.120Z,68.60
2022-09-01T20:00:42.052Z,68.70
2022-09-01T20:03:51.909Z,68.90
2022-09-01T20:07:00.299Z,68.80
2022-09-01T20:10:16.622Z,69.40
2022-09-01T20:13:50.286Z,69.20
2022-09-01T20:16:57.245Z,69.30
2022-09-01T20:20:08.732Z,69.30
2022-09-01T20:23:16.964Z,69.50
2022-09-01T20:26:25.486Z,69.30
2022-09-01T20:29:36.099Z,69.30
2022-09-01T20:32:46.109Z,69.70
2022-09-01T20:35:52.482Z,70.50
2022-09-01T20:39:16.455Z,70.10
2022-09-01T20:42:31.508Z,70.60
2022-09-01T20:45:34.681Z,71.00
2022-09-01T20:48:42.652Z,70.50
2022-09-01T20:51:55.804Z,71.40
2022-09-01T20:55:02.665Z,71.20
2022-09-01T20:58:14.964Z,71.20
2022-09-01T21:01:22.257Z,71.80
2022-09-01T21:04:39.008Z,71.70
2022-09-01T21:07:50.443Z,72.00
2022-09-01T21:11:00.063Z,72.00
2022-09-01T21:14:14.204Z,72.40
2022-09-01T21:17:25.583Z,72.60
2022-09-01T21:20:39.456Z,73.10
2022-09-01T21:23:42.581Z,73.70
2022-09-01T21:26:45.918Z,73.50
2022-09-01T21:29:55.543Z,73.80
2022-09-01T21:32:59.142Z,74.00
2022-09-01T21:36:04.178Z,73.90
2022-09-01T21:39:07.406Z,73.90
2022-09-01T21:42:12.344Z,74.20
2022-09-01T21:45:18.185Z,74.30
2022-09-01T21:48:21.493Z,74.90
2022-09-01T21:51:25.962Z,75.60
2022-09-01T21:54:29.048Z,75.40
2022-09-01T21:57:32.533Z,75.30
2022-09-01T22:00:40.414Z,75.50
2022-09-01T22:03:43.730Z,75.70
2022-09-01T22:06:48.449Z,75.80
2022-09-01T22:09:51.515Z,75.90
2022-09-01T22:12:55.445Z,76.70
2022-09-01T22:15:58.543Z,76.50
2022-09-01T22:19:02.012Z,77.20
2022-09-01T22:22:06.684Z,77.70
2022-09-01T22:25:13.568Z,77.90
2022-09-01T22:28:16.668Z,77.90
2022-09-01T22:31:21.823Z,77.40
2022-09-01T22:34:24.994Z,77.70
2022-09-01T22:37:29.509Z,78.40
2022-09-01T22:40:32.654Z,79.20
2022-09-01T22:43:35.939Z,80.70
2022-09-01T22:46:40.306Z,81.50
2022-09-01T22:49:43.497Z,82.90
2022-09-01T22:52:47.953Z,83.90
2022-09-01T22:55:52.701Z,85.30
2022-09-01T22:58:57.777Z,85.70
2022-09-01T23:02:01.210Z,86.80
2022-09-01T23:05:05.990Z,88.00
2022-09-01T23:08:11.402Z,89.90
2022-09-01T23:11:15.268Z,90.00
2022-09-01T23:14:19.565Z,90.00
2022-09-01T23:17:22.656Z,90.20
2022-09-01T23:20:25.773Z,90.40
2022-09-01T23:23:30.373Z,90.80
2022-09-01T23:26:34.856Z,90.80
2022-09-01T23:29:37.964Z,90.80
2022-09-01T23:32:41.428Z,91.10
2022-09-01T23:35:44.962Z,91.20
2022-09-01T23:38:49.742Z,91.20
2022-09-01T23:41:52.898Z,91.40
2022-09-01T23:44:55.985Z,91.60
2022-09-01T23:47:59.137Z,91.90
2022-09-01T23:51:11.275Z,92.20
2022-09-01T23:54:16.668Z,92.20
2022-09-01T23:57:20.588Z,92.20
